KGRD

Greenwood County Airport

Greenwood, South Carolina, USA
METAR KGRD 232056Z AUTO 30003KT 10SM CLR 18/11 A3015 RMK AO2 SLP207 T01830106 56017
Observed Flight Rules
Oct-23 @ 20:56 UTC (30 minutes ago) Visual Flight Rules
Wind Visibility Clouds
300° at 3 knots 10 miles
  • Clear skies
Temperatures Readings
Current 18°C / 64°F
Dewpoint 11°C / 52°F
Humidity 64%
Altimeter 30.15" Hg
Pressure 1020.7 hPa
Elevation 185
METAR KGRD 232056Z AUTO 30003KT 10SM CLR 18/11 A3015 RMK AO2 SLP207 T01830106 56017
Observed Flight Rules
Oct-23 @ 20:56 UTC
(30 minutes ago)
VFR
Wind Visibility
300° at 3 knots 10 miles
Clouds
  • Clear skies
Temperature Dewpoint
18°C / 64°F 11°C / 52°F
Humidity Altimeter Pressure
64% 30.15" Hg 1020.7 hPa